createdAt,value
2023-02-25T00:03:19.575Z,2.38
2023-02-25T00:08:21.220Z,2.26
2023-02-25T00:13:22.678Z,2.16
2023-02-25T00:18:25.072Z,2.23
2023-02-25T00:23:26.821Z,2.16
2023-02-25T00:28:28.401Z,2.21
2023-02-25T00:33:29.902Z,2.28
2023-02-25T00:38:31.444Z,2.23
2023-02-25T00:43:32.920Z,2.27
2023-02-25T00:48:35.939Z,2.28
2023-02-25T00:53:40.409Z,2.39
2023-02-25T00:58:42.725Z,2.47
2023-02-25T01:03:44.278Z,2.56
2023-02-25T01:08:45.942Z,2.63
2023-02-25T01:13:50.793Z,2.68
2023-02-25T01:18:53.252Z,2.64
2023-02-25T01:24:00.990Z,2.80
2023-02-25T01:29:06.078Z,2.68
2023-02-25T01:34:08.705Z,2.77
2023-02-25T01:39:10.581Z,2.76
2023-02-25T01:44:13.622Z,2.95
2023-02-25T01:49:18.446Z,2.88
2023-02-25T01:54:21.072Z,2.84
2023-02-25T01:59:24.969Z,2.85
2023-02-25T02:04:27.533Z,2.81
2023-02-25T02:09:29.445Z,2.93
2023-02-25T02:14:33.314Z,2.91
2023-02-25T02:19:37.844Z,3.00
2023-02-25T02:25:01.603Z,3.03
2023-02-25T02:30:17.196Z,3.01
2023-02-25T02:35:39.859Z,2.99
2023-02-25T02:40:47.405Z,2.89
2023-02-25T02:45:52.458Z,2.83
2023-02-25T02:50:57.260Z,2.76
2023-02-25T02:56:00.828Z,2.58
2023-02-25T03:01:05.911Z,2.62
2023-02-25T03:06:19.317Z,2.66
2023-02-25T03:11:20.902Z,2.63
2023-02-25T03:16:42.783Z,2.56
2023-02-25T03:22:10.955Z,2.49
2023-02-25T03:27:22.373Z,2.51
2023-02-25T03:32:26.769Z,2.52
2023-02-25T03:37:31.979Z,2.53
2023-02-25T03:42:34.040Z,2.47
2023-02-25T03:47:37.309Z,2.55
2023-02-25T03:52:39.921Z,2.46
2023-02-25T03:57:49.094Z,2.38
2023-02-25T04:02:50.934Z,2.35
2023-02-25T04:07:52.520Z,2.26
2023-02-25T04:12:54.279Z,2.27
2023-02-25T04:17:55.791Z,2.25
2023-02-25T04:22:57.400Z,2.35
2023-02-25T04:27:58.904Z,2.33
2023-02-25T04:33:00.434Z,2.03
2023-02-25T04:38:01.914Z,1.86
2023-02-25T04:43:03.465Z,1.65
2023-02-25T04:48:05.205Z,1.58
2023-02-25T04:53:06.706Z,1.49
2023-02-25T04:58:08.278Z,1.38
2023-02-25T05:03:09.772Z,1.36
2023-02-25T05:08:11.378Z,1.33
2023-02-25T05:13:13.075Z,1.23
2023-02-25T05:18:14.854Z,1.31
2023-02-25T05:23:16.418Z,1.27
2023-02-25T05:28:17.921Z,1.30
2023-02-25T05:33:19.463Z,1.24
2023-02-25T05:38:21.012Z,1.24
2023-02-25T05:43:22.572Z,1.27
2023-02-25T05:48:24.168Z,1.24
2023-02-25T05:53:25.762Z,1.18
2023-02-25T05:58:27.598Z,1.19
2023-02-25T06:03:29.167Z,1.17
2023-02-25T06:08:30.776Z,1.18
2023-02-25T06:13:32.503Z,1.10
2023-02-25T06:18:37.119Z,1.12
2023-02-25T06:23:39.598Z,1.31
2023-02-25T06:28:41.173Z,1.25
2023-02-25T06:33:43.035Z,1.38
2023-02-25T06:38:46.006Z,1.28
2023-02-25T06:43:52.093Z,1.28
2023-02-25T06:48:55.597Z,1.30
2023-02-25T06:53:57.123Z,1.34
2023-02-25T06:59:01.633Z,1.35
2023-02-25T07:04:03.640Z,1.43
2023-02-25T07:09:05.580Z,1.43
2023-02-25T07:14:07.612Z,1.28
2023-02-25T07:19:09.229Z,1.37
2023-02-25T07:24:11.495Z,1.44
2023-02-25T07:29:13.934Z,1.48
2023-02-25T07:34:15.755Z,1.56
2023-02-25T07:39:17.576Z,1.61
2023-02-25T07:44:19.318Z,1.54
2023-02-25T07:49:21.039Z,1.64
2023-02-25T07:54:22.950Z,1.58
2023-02-25T07:59:24.456Z,1.61
2023-02-25T08:04:26.261Z,1.49
2023-02-25T08:09:28.150Z,1.46
2023-02-25T08:14:29.728Z,1.42
2023-02-25T08:19:31.231Z,1.46
2023-02-25T08:24:32.994Z,1.57
2023-02-25T08:29:35.822Z,1.63
2023-02-25T08:34:37.739Z,1.67
2023-02-25T08:39:39.366Z,1.72
2023-02-25T08:44:41.019Z,1.80
2023-02-25T08:49:42.806Z,1.96
2023-02-25T08:54:44.338Z,1.86
2023-02-25T08:59:45.927Z,2.04
2023-02-25T09:04:47.499Z,2.18
2023-02-25T09:09:49.168Z,2.33
2023-02-25T09:14:50.727Z,2.13
2023-02-25T09:19:52.404Z,1.95
2023-02-25T09:24:53.940Z,1.80
2023-02-25T09:29:55.552Z,1.80
2023-02-25T09:34:57.125Z,1.71
2023-02-25T09:39:58.695Z,1.67
2023-02-25T09:45:01.866Z,1.55
2023-02-25T09:52:35.478Z,1.55
2023-02-25T09:57:41.667Z,1.61
2023-02-25T10:03:11.731Z,1.61
2023-02-25T10:08:31.128Z,1.62
2023-02-25T10:13:35.457Z,1.46
2023-02-25T10:18:51.757Z,1.63
2023-02-25T10:24:08.644Z,1.54
2023-02-25T10:29:35.721Z,1.36
2023-02-25T10:34:39.133Z,1.56
2023-02-25T10:39:42.072Z,1.39
2023-02-25T10:44:44.738Z,1.48
2023-02-25T10:50:19.454Z,1.35
2023-02-25T10:55:28.840Z,1.22
2023-02-25T11:00:36.428Z,1.25
2023-02-25T11:05:41.054Z,1.42
2023-02-25T11:10:42.834Z,1.39
2023-02-25T11:15:46.472Z,1.76
2023-02-25T11:20:55.336Z,1.83
2023-02-25T11:25:57.510Z,1.69
2023-02-25T11:31:15.259Z,1.58
2023-02-25T11:36:23.651Z,1.62
2023-02-25T11:41:32.270Z,1.66
2023-02-25T11:46:34.745Z,1.79
2023-02-25T11:51:39.221Z,1.96
2023-02-25T11:56:48.522Z,2.09
2023-02-25T12:01:56.425Z,2.23
2023-02-25T12:07:16.290Z,2.16
2023-02-25T12:12:23.853Z,2.28
2023-02-25T12:17:46.864Z,2.29
2023-02-25T12:23:17.506Z,2.31
2023-02-25T12:28:49.749Z,2.46
2023-02-25T12:34:21.087Z,2.27
2023-02-25T12:39:38.218Z,2.21
2023-02-25T12:44:45.838Z,2.16
2023-02-25T12:50:04.618Z,2.21
2023-02-25T12:55:37.143Z,2.22
2023-02-25T13:01:00.598Z,2.24
2023-02-25T13:06:20.882Z,1.98
2023-02-25T13:11:28.997Z,2.06
2023-02-25T13:16:39.883Z,2.20
2023-02-25T13:22:04.490Z,2.17
2023-02-25T13:27:09.061Z,1.98
2023-02-25T13:32:27.236Z,1.92
2023-02-25T13:38:02.685Z,1.90
2023-02-25T13:43:29.662Z,2.01
2023-02-25T13:48:43.649Z,2.02
2023-02-25T13:54:16.432Z,2.01
2023-02-25T13:59:46.323Z,1.95
2023-02-25T14:05:23.633Z,1.92
2023-02-25T14:10:45.435Z,1.96
2023-02-25T14:15:53.057Z,1.76
2023-02-25T14:21:03.597Z,1.93
2023-02-25T14:26:30.180Z,1.60
2023-02-25T14:31:44.886Z,0.59
2023-02-25T14:36:52.387Z,0.33
2023-02-25T14:42:13.651Z,0.14
2023-02-25T14:47:29.987Z,0.29
2023-02-25T14:52:34.444Z,0.32
2023-02-25T14:57:51.609Z,0.00
2023-02-25T15:02:53.187Z,0.20
2023-02-25T15:08:15.296Z,0.28
2023-02-25T15:13:39.174Z,0.22
2023-02-25T15:19:08.710Z,0.43
2023-02-25T15:24:29.519Z,0.61
2023-02-25T15:29:31.665Z,0.50
2023-02-25T15:34:35.984Z,0.58
2023-02-25T15:39:40.604Z,0.47
2023-02-25T15:44:43.792Z,0.42
2023-02-25T15:49:47.540Z,0.25
2023-02-25T15:54:50.175Z,0.16
2023-02-25T15:59:55.411Z,-0.17
2023-02-25T16:05:23.619Z,-0.31
2023-02-25T16:10:35.239Z,-0.30
2023-02-25T16:15:43.357Z,-0.26
2023-02-25T16:20:48.412Z,-0.23
2023-02-25T16:26:11.534Z,-0.14
2023-02-25T16:31:36.799Z,-0.17
2023-02-25T16:36:56.961Z,-0.37
2023-02-25T16:42:08.734Z,-0.22
2023-02-25T16:47:39.499Z,-0.26
2023-02-25T16:52:47.851Z,-0.13
2023-02-25T16:58:03.244Z,-0.23
2023-02-25T17:03:10.825Z,-0.14
2023-02-25T17:08:17.831Z,-0.30
2023-02-25T17:13:41.768Z,-0.32
2023-02-25T17:18:49.552Z,-0.33
2023-02-25T17:23:52.214Z,-0.26
2023-02-25T17:28:56.662Z,-0.27
2023-02-25T17:34:04.567Z,-0.30
2023-02-25T17:39:11.952Z,-0.36
2023-02-25T17:44:32.104Z,-0.37
2023-02-25T17:49:35.859Z,-0.35
2023-02-25T17:54:38.358Z,-0.38
2023-02-25T17:59:42.717Z,-0.39
2023-02-25T18:04:44.379Z,-0.40
2023-02-25T18:09:46.257Z,-0.43
2023-02-25T18:14:54.538Z,-0.59
2023-02-25T18:19:59.314Z,-0.48
2023-02-25T18:25:05.714Z,-0.46
2023-02-25T18:30:19.772Z,-0.51
2023-02-25T18:35:22.115Z,-0.42
2023-02-25T18:40:30.904Z,-0.53
2023-02-25T18:45:34.108Z,-0.41
2023-02-25T18:50:36.865Z,-0.39
2023-02-25T18:55:39.556Z,-0.52
2023-02-25T19:00:43.733Z,-0.39
2023-02-25T19:05:46.940Z,-0.45
2023-02-25T19:10:49.251Z,-0.45
2023-02-25T19:15:51.282Z,-0.41
2023-02-25T19:20:53.718Z,-0.47
2023-02-25T19:25:59.640Z,-0.57
2023-02-25T19:31:03.549Z,-0.71
2023-02-25T19:36:06.911Z,-0.70
2023-02-25T19:41:09.662Z,-0.62
2023-02-25T19:46:11.437Z,-0.67
2023-02-25T19:51:13.973Z,-0.66
2023-02-25T19:56:15.645Z,-0.78
2023-02-25T20:01:17.498Z,-0.74
2023-02-25T20:06:23.934Z,-0.76
2023-02-25T20:11:25.768Z,-0.69
2023-02-25T20:16:27.680Z,-0.80
2023-02-25T20:21:29.667Z,-0.80
2023-02-25T20:26:33.196Z,-0.86
2023-02-25T20:31:34.915Z,-0.84
2023-02-25T20:36:51.424Z,-0.85
2023-02-25T20:41:54.198Z,-0.94
2023-02-25T20:46:56.518Z,-0.99
2023-02-25T20:51:58.691Z,-1.04
2023-02-25T20:57:00.728Z,-1.09
2023-02-25T21:02:02.471Z,-1.04
2023-02-25T21:07:04.590Z,-1.15
2023-02-25T21:12:07.660Z,-1.06
2023-02-25T21:17:09.714Z,-1.04
2023-02-25T21:22:11.481Z,-1.10
2023-02-25T21:27:13.254Z,-1.05
2023-02-25T21:32:14.944Z,-1.06
2023-02-25T21:37:16.800Z,-1.08
2023-02-25T21:42:18.880Z,-1.12
2023-02-25T21:47:20.610Z,-1.21
2023-02-25T21:52:22.812Z,-1.31
2023-02-25T21:57:24.448Z,-1.29
2023-02-25T22:02:26.514Z,-1.18
2023-02-25T22:07:28.367Z,-1.37
2023-02-25T22:12:30.061Z,-1.35
2023-02-25T22:17:31.805Z,-1.27
2023-02-25T22:22:34.014Z,-1.29
2023-02-25T22:27:35.724Z,-1.22
2023-02-25T22:32:37.806Z,-1.24
2023-02-25T22:37:39.579Z,-1.37
2023-02-25T22:42:41.532Z,-1.42
2023-02-25T22:47:43.154Z,-1.37
2023-02-25T22:52:45.232Z,-1.35
2023-02-25T22:57:46.929Z,-1.43
2023-02-25T23:02:48.608Z,-1.51
2023-02-25T23:07:50.310Z,-1.38
2023-02-25T23:12:52.011Z,-1.46
2023-02-25T23:17:55.216Z,-1.45
2023-02-25T23:22:57.508Z,-1.40
2023-02-25T23:27:59.728Z,-1.33
2023-02-25T23:33:01.403Z,-1.35
2023-02-25T23:38:03.209Z,-1.34
2023-02-25T23:43:05.420Z,-1.29
2023-02-25T23:48:07.326Z,-1.30
2023-02-25T23:53:08.993Z,-1.43
2023-02-25T23:58:10.718Z,-1.38
